PAUN/UNK METAR and TAF weather

Enter ICAO airport designator
Station Type Date Time Source
PAUN METAR 2019/08/24 19:56 UTC NOAA

PAUN 241956Z AUTO 22004KT 10SM CLR 10/07 A2986 RMK AO2 SLP114 T01000072


Station Type Date Time Source
PAUN Decoded METAR 2019/08/24 19:56 UTC NOAA

Station name not available
Aug 24, 2019 - 03:56 PM EDT / 2019.08.24 1956 UTC
Wind: from the SW (220 degrees) at 5 MPH (4 KT):0
Visibility: 10 mile(s):0
Sky conditions: clear
Temperature: 50.0 F (10.0 C)
Dew Point: 45.0 F (7.2 C)
Relative Humidity: 82%
Pressure (altimeter): 29.86 in. Hg (1011 hPa)
ob: PAUN 241956Z AUTO 22004KT 10SM CLR 10/07 A2986 RMK AO2 SLP114 T01000072
cycle: 20

Station Type Date Time Source
PAUN TAF 2019/08/24 18:42 UTC NOAA

TAF PAUN 241739Z 2418/2518 VRB03KT P6SM SKC
FM242000 33010KT P6SM FEW050 FEW100 SCT250
FM251000 26008KT P6SM BKN050 OVC100

Example: see airport list